sensor_id;sensor_type;location;lat;lon;timestamp;P1;durP1;ratioP1;P2;durP2;ratioP2
71679;SDS011;59512;42.662;23.254;2023-07-20T00:02:12;9.17;;;2.80;;
71679;SDS011;59512;42.662;23.254;2023-07-20T00:04:38;11.32;;;3.33;;
71679;SDS011;59512;42.662;23.254;2023-07-20T00:07:03;10.27;;;2.90;;
71679;SDS011;59512;42.662;23.254;2023-07-20T00:09:29;8.85;;;3.03;;
71679;SDS011;59512;42.662;23.254;2023-07-20T00:11:55;10.73;;;2.90;;
71679;SDS011;59512;42.662;23.254;2023-07-20T00:14:20;8.20;;;2.87;;
71679;SDS011;59512;42.662;23.254;2023-07-20T00:16:46;11.53;;;3.03;;
71679;SDS011;59512;42.662;23.254;2023-07-20T00:19:14;9.95;;;3.00;;
71679;SDS011;59512;42.662;23.254;2023-07-20T00:21:41;9.93;;;2.90;;
71679;SDS011;59512;42.662;23.254;2023-07-20T00:24:07;9.60;;;3.10;;
71679;SDS011;59512;42.662;23.254;2023-07-20T00:26:33;12.65;;;3.20;;
71679;SDS011;59512;42.662;23.254;2023-07-20T00:28:58;10.40;;;3.43;;
71679;SDS011;59512;42.662;23.254;2023-07-20T00:31:24;12.10;;;3.03;;
71679;SDS011;59512;42.662;23.254;2023-07-20T00:33:49;11.27;;;2.90;;
71679;SDS011;59512;42.662;23.254;2023-07-20T00:36:15;10.48;;;3.30;;
71679;SDS011;59512;42.662;23.254;2023-07-20T00:38:41;9.37;;;3.23;;
71679;SDS011;59512;42.662;23.254;2023-07-20T00:41:07;10.50;;;3.17;;
71679;SDS011;59512;42.662;23.254;2023-07-20T00:43:32;11.60;;;3.40;;
71679;SDS011;59512;42.662;23.254;2023-07-20T00:45:58;12.93;;;3.57;;
71679;SDS011;59512;42.662;23.254;2023-07-20T00:48:24;8.93;;;2.55;;
71679;SDS011;59512;42.662;23.254;2023-07-20T00:50:49;13.43;;;3.60;;
71679;SDS011;59512;42.662;23.254;2023-07-20T00:53:15;9.70;;;3.20;;
71679;SDS011;59512;42.662;23.254;2023-07-20T00:55:41;9.73;;;3.13;;
71679;SDS011;59512;42.662;23.254;2023-07-20T00:58:06;12.65;;;2.85;;
71679;SDS011;59512;42.662;23.254;2023-07-20T01:00:32;13.17;;;3.40;;
71679;SDS011;59512;42.662;23.254;2023-07-20T01:02:57;9.00;;;3.10;;
71679;SDS011;59512;42.662;23.254;2023-07-20T01:05:24;12.98;;;3.55;;
71679;SDS011;59512;42.662;23.254;2023-07-20T01:08:03;11.53;;;3.40;;
71679;SDS011;59512;42.662;23.254;2023-07-20T01:10:43;12.38;;;3.70;;
71679;SDS011;59512;42.662;23.254;2023-07-20T01:13:10;10.30;;;3.00;;
71679;SDS011;59512;42.662;23.254;2023-07-20T01:15:37;12.10;;;3.10;;
71679;SDS011;59512;42.662;23.254;2023-07-20T01:18:03;14.83;;;3.60;;
71679;SDS011;59512;42.662;23.254;2023-07-20T01:20:30;9.18;;;3.45;;
71679;SDS011;59512;42.662;23.254;2023-07-20T01:33:50;9.23;;;3.15;;
71679;SDS011;59512;42.662;23.254;2023-07-20T01:36:20;10.68;;;3.15;;
71679;SDS011;59512;42.662;23.254;2023-07-20T01:38:47;11.95;;;3.30;;
71679;SDS011;59512;42.662;23.254;2023-07-20T01:41:13;12.37;;;3.73;;
71679;SDS011;59512;42.662;23.254;2023-07-20T01:43:39;10.32;;;3.28;;
71679;SDS011;59512;42.662;23.254;2023-07-20T01:46:05;9.98;;;3.95;;
71679;SDS011;59512;42.662;23.254;2023-07-20T01:48:31;12.97;;;3.70;;
71679;SDS011;59512;42.662;23.254;2023-07-20T01:50:57;10.83;;;3.13;;
71679;SDS011;59512;42.662;23.254;2023-07-20T01:53:22;11.25;;;3.17;;
71679;SDS011;59512;42.662;23.254;2023-07-20T01:55:47;12.65;;;3.67;;
71679;SDS011;59512;42.662;23.254;2023-07-20T01:58:13;9.73;;;3.23;;
71679;SDS011;59512;42.662;23.254;2023-07-20T02:00:38;9.80;;;3.33;;
71679;SDS011;59512;42.662;23.254;2023-07-20T02:03:04;10.75;;;3.78;;
71679;SDS011;59512;42.662;23.254;2023-07-20T02:05:30;9.00;;;3.47;;
71679;SDS011;59512;42.662;23.254;2023-07-20T02:07:55;10.77;;;3.43;;
71679;SDS011;59512;42.662;23.254;2023-07-20T02:10:20;9.90;;;3.93;;
71679;SDS011;59512;42.662;23.254;2023-07-20T02:12:46;12.88;;;3.92;;
71679;SDS011;59512;42.662;23.254;2023-07-20T02:15:12;15.37;;;3.93;;
71679;SDS011;59512;42.662;23.254;2023-07-20T02:17:38;11.82;;;3.55;;
71679;SDS011;59512;42.662;23.254;2023-07-20T02:20:06;13.98;;;4.10;;
71679;SDS011;59512;42.662;23.254;2023-07-20T02:22:34;12.13;;;3.70;;
71679;SDS011;59512;42.662;23.254;2023-07-20T02:25:00;9.73;;;3.90;;
71679;SDS011;59512;42.662;23.254;2023-07-20T02:27:25;11.77;;;3.90;;
71679;SDS011;59512;42.662;23.254;2023-07-20T02:29:51;10.70;;;3.70;;
71679;SDS011;59512;42.662;23.254;2023-07-20T02:32:16;10.13;;;3.75;;
71679;SDS011;59512;42.662;23.254;2023-07-20T02:34:42;10.10;;;3.80;;
71679;SDS011;59512;42.662;23.254;2023-07-20T02:37:08;12.00;;;3.78;;
71679;SDS011;59512;42.662;23.254;2023-07-20T02:39:34;12.27;;;4.50;;
71679;SDS011;59512;42.662;23.254;2023-07-20T02:41:59;12.87;;;4.13;;
71679;SDS011;59512;42.662;23.254;2023-07-20T02:44:24;10.77;;;3.95;;
71679;SDS011;59512;42.662;23.254;2023-07-20T02:46:50;10.73;;;3.90;;
71679;SDS011;59512;42.662;23.254;2023-07-20T02:49:15;10.40;;;3.97;;
71679;SDS011;59512;42.662;23.254;2023-07-20T02:51:41;12.20;;;4.07;;
71679;SDS011;59512;42.662;23.254;2023-07-20T02:54:07;11.50;;;4.30;;
71679;SDS011;59512;42.662;23.254;2023-07-20T02:56:33;11.95;;;4.40;;
71679;SDS011;59512;42.662;23.254;2023-07-20T02:58:58;11.50;;;4.10;;
71679;SDS011;59512;42.662;23.254;2023-07-20T03:01:24;13.53;;;4.27;;
71679;SDS011;59512;42.662;23.254;2023-07-20T03:03:49;11.20;;;4.40;;
71679;SDS011;59512;42.662;23.254;2023-07-20T03:06:15;10.77;;;3.80;;
71679;SDS011;59512;42.662;23.254;2023-07-20T03:08:41;13.00;;;3.95;;
71679;SDS011;59512;42.662;23.254;2023-07-20T03:11:12;11.23;;;4.20;;
71679;SDS011;59512;42.662;23.254;2023-07-20T03:13:40;9.85;;;3.70;;
71679;SDS011;59512;42.662;23.254;2023-07-20T03:16:07;12.88;;;4.10;;
71679;SDS011;59512;42.662;23.254;2023-07-20T03:18:36;12.02;;;4.28;;
71679;SDS011;59512;42.662;23.254;2023-07-20T03:21:03;9.48;;;4.22;;
71679;SDS011;59512;42.662;23.254;2023-07-20T03:23:29;12.67;;;4.40;;
71679;SDS011;59512;42.662;23.254;2023-07-20T03:25:55;11.15;;;4.13;;
71679;SDS011;59512;42.662;23.254;2023-07-20T03:28:20;11.80;;;4.20;;
71679;SDS011;59512;42.662;23.254;2023-07-20T03:30:45;12.17;;;3.83;;
71679;SDS011;59512;42.662;23.254;2023-07-20T03:33:11;15.30;;;4.38;;
71679;SDS011;59512;42.662;23.254;2023-07-20T03:35:37;9.73;;;3.90;;
71679;SDS011;59512;42.662;23.254;2023-07-20T03:38:02;11.53;;;4.63;;
71679;SDS011;59512;42.662;23.254;2023-07-20T03:40:28;10.87;;;4.63;;
71679;SDS011;59512;42.662;23.254;2023-07-20T03:42:53;12.00;;;4.57;;
71679;SDS011;59512;42.662;23.254;2023-07-20T03:45:18;16.27;;;5.10;;
71679;SDS011;59512;42.662;23.254;2023-07-20T03:47:44;22.20;;;5.77;;
71679;SDS011;59512;42.662;23.254;2023-07-20T03:50:09;18.07;;;5.47;;
71679;SDS011;59512;42.662;23.254;2023-07-20T03:52:35;17.30;;;5.88;;
71679;SDS011;59512;42.662;23.254;2023-07-20T03:55:01;17.53;;;5.97;;
71679;SDS011;59512;42.662;23.254;2023-07-20T03:57:27;13.45;;;5.38;;
71679;SDS011;59512;42.662;23.254;2023-07-20T03:59:52;11.67;;;4.93;;
71679;SDS011;59512;42.662;23.254;2023-07-20T04:02:18;11.93;;;4.82;;
71679;SDS011;59512;42.662;23.254;2023-07-20T04:04:43;11.03;;;4.53;;
71679;SDS011;59512;42.662;23.254;2023-07-20T04:07:09;11.23;;;4.73;;
71679;SDS011;59512;42.662;23.254;2023-07-20T04:09:34;13.90;;;4.83;;
71679;SDS011;59512;42.662;23.254;2023-07-20T04:12:00;13.68;;;4.75;;
71679;SDS011;59512;42.662;23.254;2023-07-20T04:14:25;13.17;;;4.87;;
71679;SDS011;59512;42.662;23.254;2023-07-20T04:16:50;15.93;;;6.20;;
71679;SDS011;59512;42.662;23.254;2023-07-20T04:19:16;13.20;;;5.37;;
71679;SDS011;59512;42.662;23.254;2023-07-20T04:21:43;14.98;;;5.65;;
71679;SDS011;59512;42.662;23.254;2023-07-20T04:24:08;18.00;;;5.70;;
71679;SDS011;59512;42.662;23.254;2023-07-20T04:26:34;17.47;;;5.20;;
71679;SDS011;59512;42.662;23.254;2023-07-20T04:29:00;14.63;;;5.38;;
71679;SDS011;59512;42.662;23.254;2023-07-20T04:31:26;17.37;;;5.70;;
71679;SDS011;59512;42.662;23.254;2023-07-20T04:33:51;12.88;;;4.65;;
71679;SDS011;59512;42.662;23.254;2023-07-20T04:36:16;13.30;;;5.85;;
71679;SDS011;59512;42.662;23.254;2023-07-20T04:38:44;14.03;;;6.57;;
71679;SDS011;59512;42.662;23.254;2023-07-20T04:41:10;14.10;;;5.22;;
71679;SDS011;59512;42.662;23.254;2023-07-20T04:43:38;14.05;;;5.72;;
71679;SDS011;59512;42.662;23.254;2023-07-20T04:46:06;13.90;;;5.45;;
71679;SDS011;59512;42.662;23.254;2023-07-20T04:48:31;15.10;;;5.13;;
71679;SDS011;59512;42.662;23.254;2023-07-20T04:50:57;13.73;;;5.07;;
71679;SDS011;59512;42.662;23.254;2023-07-20T04:53:22;16.40;;;8.37;;
71679;SDS011;59512;42.662;23.254;2023-07-20T04:55:48;11.43;;;4.97;;
71679;SDS011;59512;42.662;23.254;2023-07-20T04:58:19;13.02;;;4.38;;
71679;SDS011;59512;42.662;23.254;2023-07-20T05:00:45;14.27;;;4.53;;
71679;SDS011;59512;42.662;23.254;2023-07-20T05:03:11;12.25;;;4.30;;
71679;SDS011;59512;42.662;23.254;2023-07-20T05:05:36;14.47;;;4.30;;
71679;SDS011;59512;42.662;23.254;2023-07-20T05:08:03;15.30;;;4.40;;
71679;SDS011;59512;42.662;23.254;2023-07-20T05:10:29;12.05;;;5.10;;
71679;SDS011;59512;42.662;23.254;2023-07-20T05:12:54;14.10;;;5.17;;
71679;SDS011;59512;42.662;23.254;2023-07-20T05:15:20;13.33;;;5.90;;
71679;SDS011;59512;42.662;23.254;2023-07-20T05:17:45;19.13;;;5.87;;
71679;SDS011;59512;42.662;23.254;2023-07-20T05:20:11;11.88;;;4.88;;
71679;SDS011;59512;42.662;23.254;2023-07-20T05:22:37;15.15;;;4.60;;
71679;SDS011;59512;42.662;23.254;2023-07-20T05:25:05;16.87;;;4.80;;
71679;SDS011;59512;42.662;23.254;2023-07-20T05:27:37;16.67;;;4.57;;
71679;SDS011;59512;42.662;23.254;2023-07-20T05:30:04;16.55;;;4.22;;
71679;SDS011;59512;42.662;23.254;2023-07-20T05:32:30;17.58;;;7.40;;
71679;SDS011;59512;42.662;23.254;2023-07-20T05:34:55;19.93;;;7.23;;
71679;SDS011;59512;42.662;23.254;2023-07-20T05:37:21;14.70;;;4.30;;
71679;SDS011;59512;42.662;23.254;2023-07-20T05:39:46;12.25;;;4.50;;
71679;SDS011;59512;42.662;23.254;2023-07-20T05:42:12;14.20;;;3.77;;
71679;SDS011;59512;42.662;23.254;2023-07-20T05:44:37;11.90;;;3.73;;
71679;SDS011;59512;42.662;23.254;2023-07-20T05:47:03;11.73;;;4.22;;
71679;SDS011;59512;42.662;23.254;2023-07-20T05:49:29;12.82;;;3.78;;
71679;SDS011;59512;42.662;23.254;2023-07-20T05:51:54;10.80;;;3.83;;
71679;SDS011;59512;42.662;23.254;2023-07-20T05:54:21;12.10;;;4.22;;
71679;SDS011;59512;42.662;23.254;2023-07-20T05:56:46;9.90;;;3.85;;
71679;SDS011;59512;42.662;23.254;2023-07-20T05:59:12;12.47;;;4.17;;
71679;SDS011;59512;42.662;23.254;2023-07-20T06:01:37;13.00;;;4.90;;
71679;SDS011;59512;42.662;23.254;2023-07-20T06:04:03;12.27;;;4.00;;
71679;SDS011;59512;42.662;23.254;2023-07-20T06:06:28;17.67;;;4.57;;
71679;SDS011;59512;42.662;23.254;2023-07-20T06:08:54;11.87;;;4.50;;
71679;SDS011;59512;42.662;23.254;2023-07-20T06:11:19;11.50;;;4.50;;
71679;SDS011;59512;42.662;23.254;2023-07-20T06:13:45;13.10;;;4.30;;
71679;SDS011;59512;42.662;23.254;2023-07-20T06:16:10;16.07;;;4.30;;
71679;SDS011;59512;42.662;23.254;2023-07-20T06:18:36;15.10;;;4.20;;
71679;SDS011;59512;42.662;23.254;2023-07-20T06:21:01;13.55;;;4.22;;
71679;SDS011;59512;42.662;23.254;2023-07-20T06:23:27;13.57;;;4.10;;
71679;SDS011;59512;42.662;23.254;2023-07-20T06:25:52;15.33;;;5.00;;
71679;SDS011;59512;42.662;23.254;2023-07-20T06:28:18;10.63;;;4.00;;
71679;SDS011;59512;42.662;23.254;2023-07-20T06:30:43;16.87;;;4.33;;
71679;SDS011;59512;42.662;23.254;2023-07-20T06:33:09;13.83;;;4.50;;
71679;SDS011;59512;42.662;23.254;2023-07-20T06:35:34;11.93;;;4.30;;
71679;SDS011;59512;42.662;23.254;2023-07-20T06:38:03;13.82;;;4.07;;
71679;SDS011;59512;42.662;23.254;2023-07-20T06:40:29;15.47;;;4.83;;
71679;SDS011;59512;42.662;23.254;2023-07-20T06:42:57;11.60;;;4.38;;
71679;SDS011;59512;42.662;23.254;2023-07-20T06:45:22;15.10;;;3.80;;
71679;SDS011;59512;42.662;23.254;2023-07-20T06:47:47;11.47;;;3.83;;
71679;SDS011;59512;42.662;23.254;2023-07-20T06:50:13;11.23;;;4.20;;
71679;SDS011;59512;42.662;23.254;2023-07-20T06:52:39;10.18;;;4.47;;
71679;SDS011;59512;42.662;23.254;2023-07-20T06:55:05;13.20;;;4.10;;
71679;SDS011;59512;42.662;23.254;2023-07-20T06:57:31;13.40;;;4.15;;
71679;SDS011;59512;42.662;23.254;2023-07-20T06:59:56;16.00;;;3.63;;
71679;SDS011;59512;42.662;23.254;2023-07-20T07:02:23;10.98;;;4.00;;
71679;SDS011;59512;42.662;23.254;2023-07-20T07:04:48;13.47;;;4.63;;
71679;SDS011;59512;42.662;23.254;2023-07-20T07:07:14;10.90;;;4.10;;
71679;SDS011;59512;42.662;23.254;2023-07-20T07:09:40;13.52;;;3.78;;
71679;SDS011;59512;42.662;23.254;2023-07-20T07:12:06;12.95;;;4.38;;
71679;SDS011;59512;42.662;23.254;2023-07-20T07:14:32;10.30;;;4.50;;
71679;SDS011;59512;42.662;23.254;2023-07-20T07:16:57;15.43;;;4.60;;
71679;SDS011;59512;42.662;23.254;2023-07-20T07:19:23;14.80;;;4.47;;
71679;SDS011;59512;42.662;23.254;2023-07-20T07:21:48;11.37;;;4.27;;
71679;SDS011;59512;42.662;23.254;2023-07-20T07:24:13;12.37;;;4.23;;
71679;SDS011;59512;42.662;23.254;2023-07-20T07:26:39;13.83;;;4.30;;
71679;SDS011;59512;42.662;23.254;2023-07-20T07:29:04;12.23;;;4.30;;
71679;SDS011;59512;42.662;23.254;2023-07-20T07:31:30;13.17;;;4.43;;
71679;SDS011;59512;42.662;23.254;2023-07-20T07:33:58;12.90;;;5.05;;
71679;SDS011;59512;42.662;23.254;2023-07-20T07:36:24;13.63;;;4.53;;
71679;SDS011;59512;42.662;23.254;2023-07-20T07:38:52;10.27;;;4.30;;
71679;SDS011;59512;42.662;23.254;2023-07-20T07:41:17;14.63;;;4.40;;
71679;SDS011;59512;42.662;23.254;2023-07-20T07:43:43;16.03;;;4.30;;
71679;SDS011;59512;42.662;23.254;2023-07-20T07:46:09;15.80;;;4.30;;
71679;SDS011;59512;42.662;23.254;2023-07-20T07:48:35;13.32;;;4.50;;
71679;SDS011;59512;42.662;23.254;2023-07-20T07:51:00;13.00;;;4.70;;
71679;SDS011;59512;42.662;23.254;2023-07-20T07:53:25;15.75;;;4.72;;
71679;SDS011;59512;42.662;23.254;2023-07-20T07:55:51;15.67;;;5.00;;
71679;SDS011;59512;42.662;23.254;2023-07-20T07:58:17;12.00;;;4.63;;
71679;SDS011;59512;42.662;23.254;2023-07-20T08:00:42;12.23;;;4.60;;
71679;SDS011;59512;42.662;23.254;2023-07-20T08:03:09;11.43;;;4.28;;
71679;SDS011;59512;42.662;23.254;2023-07-20T08:05:34;13.13;;;4.47;;
71679;SDS011;59512;42.662;23.254;2023-07-20T08:08:00;11.70;;;4.53;;
71679;SDS011;59512;42.662;23.254;2023-07-20T08:10:26;16.65;;;4.63;;
71679;SDS011;59512;42.662;23.254;2023-07-20T08:12:52;13.20;;;4.20;;
71679;SDS011;59512;42.662;23.254;2023-07-20T08:15:17;15.57;;;4.93;;
71679;SDS011;59512;42.662;23.254;2023-07-20T08:17:43;13.75;;;3.35;;
71679;SDS011;59512;42.662;23.254;2023-07-20T08:20:14;9.80;;;3.17;;
71679;SDS011;59512;42.662;23.254;2023-07-20T08:22:41;9.93;;;3.10;;
71679;SDS011;59512;42.662;23.254;2023-07-20T08:25:07;11.05;;;3.08;;
71679;SDS011;59512;42.662;23.254;2023-07-20T08:27:33;8.85;;;3.22;;
71679;SDS011;59512;42.662;23.254;2023-07-20T08:29:58;11.13;;;2.78;;
71679;SDS011;59512;42.662;23.254;2023-07-20T08:32:24;11.60;;;3.40;;
71679;SDS011;59512;42.662;23.254;2023-07-20T08:34:50;10.57;;;3.05;;
71679;SDS011;59512;42.662;23.254;2023-07-20T08:37:15;14.47;;;3.37;;
71679;SDS011;59512;42.662;23.254;2023-07-20T08:39:41;12.63;;;3.27;;
71679;SDS011;59512;42.662;23.254;2023-07-20T08:42:06;9.90;;;2.70;;
71679;SDS011;59512;42.662;23.254;2023-07-20T08:44:33;12.43;;;3.33;;
71679;SDS011;59512;42.662;23.254;2023-07-20T08:46:59;11.57;;;3.13;;
71679;SDS011;59512;42.662;23.254;2023-07-20T08:49:27;10.63;;;3.28;;
71679;SDS011;59512;42.662;23.254;2023-07-20T08:51:53;8.37;;;2.80;;
71679;SDS011;59512;42.662;23.254;2023-07-20T08:54:18;10.35;;;2.65;;
71679;SDS011;59512;42.662;23.254;2023-07-20T08:56:44;9.57;;;3.10;;
71679;SDS011;59512;42.662;23.254;2023-07-20T08:59:10;8.48;;;2.30;;
71679;SDS011;59512;42.662;23.254;2023-07-20T09:01:38;10.23;;;2.72;;
71679;SDS011;59512;42.662;23.254;2023-07-20T09:04:04;9.27;;;2.75;;
71679;SDS011;59512;42.662;23.254;2023-07-20T09:06:29;9.48;;;2.60;;
71679;SDS011;59512;42.662;23.254;2023-07-20T09:08:55;11.60;;;2.78;;
71679;SDS011;59512;42.662;23.254;2023-07-20T09:11:21;9.47;;;2.87;;
71679;SDS011;59512;42.662;23.254;2023-07-20T09:13:46;11.20;;;3.10;;
71679;SDS011;59512;42.662;23.254;2023-07-20T09:16:15;7.28;;;2.22;;
71679;SDS011;59512;42.662;23.254;2023-07-20T09:18:41;11.38;;;2.90;;
71679;SDS011;59512;42.662;23.254;2023-07-20T09:21:06;9.97;;;2.90;;
71679;SDS011;59512;42.662;23.254;2023-07-20T09:25:58;9.90;;;2.30;;
71679;SDS011;59512;42.662;23.254;2023-07-20T09:28:24;7.30;;;2.30;;
71679;SDS011;59512;42.662;23.254;2023-07-20T09:30:49;9.18;;;2.72;;
71679;SDS011;59512;42.662;23.254;2023-07-20T09:33:18;9.27;;;2.63;;
71679;SDS011;59512;42.662;23.254;2023-07-20T09:35:45;9.18;;;2.53;;
71679;SDS011;59512;42.662;23.254;2023-07-20T09:38:10;10.03;;;2.70;;
71679;SDS011;59512;42.662;23.254;2023-07-20T09:40:39;10.10;;;2.73;;
71679;SDS011;59512;42.662;23.254;2023-07-20T09:43:07;9.75;;;2.95;;
71679;SDS011;59512;42.662;23.254;2023-07-20T09:45:34;9.73;;;2.40;;
71679;SDS011;59512;42.662;23.254;2023-07-20T09:48:04;7.47;;;2.60;;
71679;SDS011;59512;42.662;23.254;2023-07-20T09:50:31;10.57;;;2.40;;
71679;SDS011;59512;42.662;23.254;2023-07-20T09:52:57;10.00;;;2.35;;
71679;SDS011;59512;42.662;23.254;2023-07-20T09:55:25;10.15;;;2.28;;
71679;SDS011;59512;42.662;23.254;2023-07-20T09:57:51;7.85;;;2.30;;
71679;SDS011;59512;42.662;23.254;2023-07-20T10:00:20;9.05;;;2.30;;
71679;SDS011;59512;42.662;23.254;2023-07-20T10:02:46;11.00;;;2.37;;
71679;SDS011;59512;42.662;23.254;2023-07-20T10:05:14;8.57;;;2.58;;
71679;SDS011;59512;42.662;23.254;2023-07-20T10:07:58;9.55;;;3.05;;
71679;SDS011;59512;42.662;23.254;2023-07-20T10:10:24;7.78;;;2.60;;
71679;SDS011;59512;42.662;23.254;2023-07-20T10:12:50;10.67;;;2.63;;
71679;SDS011;59512;42.662;23.254;2023-07-20T10:15:24;7.78;;;2.10;;
71679;SDS011;59512;42.662;23.254;2023-07-20T10:17:59;9.38;;;2.30;;
71679;SDS011;59512;42.662;23.254;2023-07-20T10:20:29;9.70;;;2.40;;
71679;SDS011;59512;42.662;23.254;2023-07-20T10:22:55;7.77;;;2.50;;
71679;SDS011;59512;42.662;23.254;2023-07-20T10:25:22;6.10;;;2.20;;
71679;SDS011;59512;42.662;23.254;2023-07-20T10:27:48;7.13;;;2.10;;
71679;SDS011;59512;42.662;23.254;2023-07-20T10:30:13;10.57;;;3.03;;
71679;SDS011;59512;42.662;23.254;2023-07-20T10:32:39;9.05;;;2.58;;
71679;SDS011;59512;42.662;23.254;2023-07-20T10:35:11;10.32;;;2.97;;
71679;SDS011;59512;42.662;23.254;2023-07-20T10:37:51;11.50;;;2.30;;
71679;SDS011;59512;42.662;23.254;2023-07-20T10:42:49;8.38;;;2.50;;
71679;SDS011;59512;42.662;23.254;2023-07-20T10:45:14;11.37;;;2.70;;
71679;SDS011;59512;42.662;23.254;2023-07-20T10:47:46;10.10;;;2.80;;
71679;SDS011;59512;42.662;23.254;2023-07-20T10:50:11;7.10;;;2.72;;
71679;SDS011;59512;42.662;23.254;2023-07-20T10:52:37;10.55;;;2.80;;
71679;SDS011;59512;42.662;23.254;2023-07-20T10:55:13;8.50;;;3.30;;
71679;SDS011;59512;42.662;23.254;2023-07-20T10:57:39;10.07;;;2.90;;
71679;SDS011;59512;42.662;23.254;2023-07-20T11:00:11;12.65;;;4.00;;
71679;SDS011;59512;42.662;23.254;2023-07-20T11:02:42;10.13;;;3.50;;
71679;SDS011;59512;42.662;23.254;2023-07-20T11:05:34;7.55;;;3.42;;
71679;SDS011;59512;42.662;23.254;2023-07-20T11:08:03;11.70;;;3.53;;
71679;SDS011;59512;42.662;23.254;2023-07-20T11:10:29;12.05;;;4.25;;
71679;SDS011;59512;42.662;23.254;2023-07-20T11:13:15;9.80;;;4.00;;
71679;SDS011;59512;42.662;23.254;2023-07-20T11:18:25;10.35;;;3.70;;
71679;SDS011;59512;42.662;23.254;2023-07-20T11:20:50;10.40;;;4.30;;
71679;SDS011;59512;42.662;23.254;2023-07-20T11:23:17;12.20;;;4.40;;
71679;SDS011;59512;42.662;23.254;2023-07-20T11:25:42;12.85;;;4.63;;
71679;SDS011;59512;42.662;23.254;2023-07-20T11:28:08;12.05;;;4.93;;
71679;SDS011;59512;42.662;23.254;2023-07-20T11:30:37;11.73;;;4.68;;
71679;SDS011;59512;42.662;23.254;2023-07-20T11:33:08;11.85;;;4.78;;
71679;SDS011;59512;42.662;23.254;2023-07-20T11:35:42;12.88;;;4.45;;
71679;SDS011;59512;42.662;23.254;2023-07-20T11:38:09;13.23;;;4.88;;
71679;SDS011;59512;42.662;23.254;2023-07-20T11:40:35;10.40;;;4.20;;
71679;SDS011;59512;42.662;23.254;2023-07-20T11:43:00;9.65;;;4.72;;
71679;SDS011;59512;42.662;23.254;2023-07-20T11:45:26;11.23;;;4.80;;
71679;SDS011;59512;42.662;23.254;2023-07-20T11:47:52;14.35;;;5.40;;
71679;SDS011;59512;42.662;23.254;2023-07-20T11:50:18;10.27;;;5.40;;
71679;SDS011;59512;42.662;23.254;2023-07-20T11:52:43;9.60;;;4.63;;
71679;SDS011;59512;42.662;23.254;2023-07-20T11:55:09;10.57;;;4.93;;
71679;SDS011;59512;42.662;23.254;2023-07-20T11:57:35;14.80;;;4.95;;
71679;SDS011;59512;42.662;23.254;2023-07-20T12:00:01;8.53;;;4.20;;
71679;SDS011;59512;42.662;23.254;2023-07-20T12:02:36;9.63;;;4.45;;
71679;SDS011;59512;42.662;23.254;2023-07-20T12:05:02;9.55;;;3.80;;
71679;SDS011;59512;42.662;23.254;2023-07-20T12:07:28;13.75;;;4.20;;
71679;SDS011;59512;42.662;23.254;2023-07-20T12:12:31;9.77;;;4.15;;
71679;SDS011;59512;42.662;23.254;2023-07-20T12:15:16;11.35;;;4.55;;
71679;SDS011;59512;42.662;23.254;2023-07-20T12:17:44;10.45;;;3.47;;
71679;SDS011;59512;42.662;23.254;2023-07-20T12:20:11;13.23;;;4.07;;
71679;SDS011;59512;42.662;23.254;2023-07-20T12:22:40;9.25;;;3.10;;
71679;SDS011;59512;42.662;23.254;2023-07-20T12:25:06;8.27;;;2.70;;
71679;SDS011;59512;42.662;23.254;2023-07-20T12:27:33;10.20;;;3.35;;
71679;SDS011;59512;42.662;23.254;2023-07-20T12:30:01;11.90;;;3.10;;
71679;SDS011;59512;42.662;23.254;2023-07-20T12:32:29;10.18;;;3.65;;
71679;SDS011;59512;42.662;23.254;2023-07-20T12:34:54;9.27;;;3.30;;
71679;SDS011;59512;42.662;23.254;2023-07-20T12:37:20;10.60;;;3.20;;
71679;SDS011;59512;42.662;23.254;2023-07-20T12:39:45;9.07;;;3.00;;
71679;SDS011;59512;42.662;23.254;2023-07-20T12:42:12;13.77;;;3.15;;
71679;SDS011;59512;42.662;23.254;2023-07-20T12:44:39;10.33;;;3.37;;
71679;SDS011;59512;42.662;23.254;2023-07-20T12:47:05;12.15;;;3.25;;
71679;SDS011;59512;42.662;23.254;2023-07-20T12:49:30;10.83;;;2.93;;
71679;SDS011;59512;42.662;23.254;2023-07-20T12:51:56;11.10;;;3.37;;
71679;SDS011;59512;42.662;23.254;2023-07-20T12:54:21;9.52;;;3.20;;
71679;SDS011;59512;42.662;23.254;2023-07-20T12:56:47;9.37;;;2.80;;
71679;SDS011;59512;42.662;23.254;2023-07-20T12:59:12;11.17;;;3.23;;
71679;SDS011;59512;42.662;23.254;2023-07-20T13:01:38;11.27;;;3.03;;
71679;SDS011;59512;42.662;23.254;2023-07-20T13:04:03;11.03;;;3.30;;
71679;SDS011;59512;42.662;23.254;2023-07-20T13:06:28;12.52;;;3.40;;
71679;SDS011;59512;42.662;23.254;2023-07-20T13:08:54;14.23;;;3.47;;
71679;SDS011;59512;42.662;23.254;2023-07-20T13:11:21;9.70;;;3.53;;
71679;SDS011;59512;42.662;23.254;2023-07-20T13:13:47;12.25;;;3.30;;
71679;SDS011;59512;42.662;23.254;2023-07-20T13:16:13;10.20;;;2.90;;
71679;SDS011;59512;42.662;23.254;2023-07-20T13:18:39;8.88;;;3.00;;
71679;SDS011;59512;42.662;23.254;2023-07-20T13:21:05;11.40;;;3.17;;
71679;SDS011;59512;42.662;23.254;2023-07-20T13:23:35;8.43;;;3.03;;
71679;SDS011;59512;42.662;23.254;2023-07-20T13:26:00;9.43;;;2.80;;
71679;SDS011;59512;42.662;23.254;2023-07-20T13:28:26;10.20;;;3.17;;
71679;SDS011;59512;42.662;23.254;2023-07-20T13:30:51;13.57;;;2.77;;
71679;SDS011;59512;42.662;23.254;2023-07-20T13:33:17;8.18;;;2.72;;
71679;SDS011;59512;42.662;23.254;2023-07-20T13:35:42;12.80;;;3.40;;
71679;SDS011;59512;42.662;23.254;2023-07-20T13:38:08;10.85;;;2.85;;
71679;SDS011;59512;42.662;23.254;2023-07-20T13:40:34;9.90;;;2.47;;
71679;SDS011;59512;42.662;23.254;2023-07-20T13:43:00;6.50;;;2.10;;
71679;SDS011;59512;42.662;23.254;2023-07-20T13:45:26;15.07;;;2.90;;
71679;SDS011;59512;42.662;23.254;2023-07-20T13:47:51;7.70;;;3.22;;
71679;SDS011;59512;42.662;23.254;2023-07-20T13:50:16;10.07;;;2.90;;
71679;SDS011;59512;42.662;23.254;2023-07-20T13:52:42;7.13;;;1.93;;
71679;SDS011;59512;42.662;23.254;2023-07-20T13:55:07;7.20;;;2.60;;
71679;SDS011;59512;42.662;23.254;2023-07-20T13:57:33;7.70;;;2.63;;
71679;SDS011;59512;42.662;23.254;2023-07-20T13:59:58;9.70;;;2.50;;
71679;SDS011;59512;42.662;23.254;2023-07-20T14:02:25;10.55;;;2.78;;
71679;SDS011;59512;42.662;23.254;2023-07-20T14:04:51;11.53;;;2.80;;
71679;SDS011;59512;42.662;23.254;2023-07-20T14:07:19;8.63;;;2.80;;
71679;SDS011;59512;42.662;23.254;2023-07-20T14:09:45;11.10;;;2.63;;
71679;SDS011;59512;42.662;23.254;2023-07-20T14:12:10;8.53;;;2.73;;
71679;SDS011;59512;42.662;23.254;2023-07-20T14:14:39;8.43;;;2.45;;
71679;SDS011;59512;42.662;23.254;2023-07-20T14:17:06;6.75;;;2.40;;
71679;SDS011;59512;42.662;23.254;2023-07-20T14:19:31;12.90;;;2.37;;
71679;SDS011;59512;42.662;23.254;2023-07-20T14:21:57;9.10;;;2.45;;
71679;SDS011;59512;42.662;23.254;2023-07-20T14:24:24;8.85;;;2.30;;
71679;SDS011;59512;42.662;23.254;2023-07-20T14:26:50;8.23;;;2.40;;
71679;SDS011;59512;42.662;23.254;2023-07-20T14:29:15;8.83;;;2.40;;
71679;SDS011;59512;42.662;23.254;2023-07-20T14:31:43;10.88;;;2.65;;
71679;SDS011;59512;42.662;23.254;2023-07-20T14:34:08;11.38;;;2.53;;
71679;SDS011;59512;42.662;23.254;2023-07-20T14:36:34;8.07;;;2.67;;
71679;SDS011;59512;42.662;23.254;2023-07-20T14:38:59;10.10;;;2.73;;
71679;SDS011;59512;42.662;23.254;2023-07-20T14:41:25;10.18;;;3.00;;
71679;SDS011;59512;42.662;23.254;2023-07-20T14:43:51;9.52;;;2.55;;